메인 페이지
METAR-TAF:

METAR-TAF

공항 :

네타지 수바스 찬드라 보스 국제공항

콜카타, 인도

위도: 22-39N, 경도: 088-27E, 고도: 4m

현재 날씨관측

예보는 24분 전, 20:30시(UTC)에 발표되었습니다.
동남동4kt
온도 27°C
습도 94%
기압 999 hPa
시정: 2500m
고도 1800ft 상공 구름 보통
고도 3000ft 상공 구름 조금, 적란운.
고도 9000ft 상공 구름 많음
약한비

METAR: VECC 202030Z 12004KT 2500 -RA SCT018 FEW030CB BKN090 27/26 Q0999 TEMPO TL2100 1500 TSRA

시각: 02:24 (20:54 UTC)

예보

예보는 54분 전, 20:00시(UTC)에 발표되었습니다.
예보 대상 시간: 20일 21시부터 21일 06시까지 (UTC)
남남동7kt
시정: 2500m
고도 1800ft 상공 구름 보통
고도 10000ft 상공 구름 많음
약한비, 연무
전환 중
21일 02시부터 21일 04시까지 (UTC)
시정: 3200m
약한비, 연무

TAF: VECC 202000Z 2021/2106 15007KT 2500 -RA HZ SCT018 BKN100 BECMG 2102/2104 3200 -RA HZ

4,000개 이상의 공항 관측 자료 및 예보 (METAR 및 TAF 보고).

지도상에서 검색 가능한 기상관측소가 노란 점과 빨간 점으로 표시되어 있습니다.

기상관측소 명을 보려면 표시 위로 마우스를 이동하세요.

날씨 관측과 예보를 보려면 클릭하세요.

지도 변경 : 확대하려면 엑스 표시가 있는 녹색 버튼, 축소하려면 빼기 표시가 있는 녹색 버튼, 다음 페이지의 지도를 보려면 녹색 화살표를 클릭하세요.


METAR-TAF: